createdAt,value
2018-07-16T00:01:14.764Z,18.20
2018-07-16T00:03:54.877Z,18.10
2018-07-16T00:06:22.681Z,18.00
2018-07-16T00:08:50.494Z,18.00
2018-07-16T00:13:46.120Z,17.90
2018-07-16T00:16:21.050Z,17.80
2018-07-16T00:18:48.947Z,17.70
2018-07-16T00:21:16.788Z,17.70
2018-07-16T00:23:44.864Z,17.80
2018-07-16T00:26:12.777Z,17.90
2018-07-16T00:28:41.088Z,18.00
2018-07-16T00:31:09.613Z,18.20
2018-07-16T00:33:38.351Z,18.20
2018-07-16T00:36:12.748Z,18.00
2018-07-16T00:38:41.326Z,17.90
2018-07-16T00:41:09.138Z,17.80
2018-07-16T00:43:37.173Z,17.70
2018-07-16T00:46:05.088Z,17.60
2018-07-16T00:48:33.277Z,17.60
2018-07-16T00:51:01.304Z,17.60
2018-07-16T00:53:29.160Z,17.70
2018-07-16T00:55:56.918Z,17.70
2018-07-16T00:58:24.962Z,17.70
2018-07-16T01:00:52.802Z,17.70
2018-07-16T01:03:21.745Z,17.70
2018-07-16T01:05:49.587Z,17.80
2018-07-16T01:08:17.406Z,17.90
2018-07-16T01:10:45.173Z,17.80
2018-07-16T01:13:16.672Z,17.80
2018-07-16T01:15:44.474Z,17.80
2018-07-16T01:18:12.445Z,17.70
2018-07-16T01:20:40.448Z,17.60
2018-07-16T01:23:08.491Z,17.60
2018-07-16T01:25:36.621Z,17.60
2018-07-16T01:28:05.618Z,17.60
2018-07-16T01:30:34.031Z,17.50
2018-07-16T01:33:02.316Z,17.50
2018-07-16T01:35:30.172Z,17.50
2018-07-16T01:37:58.062Z,17.50
2018-07-16T01:40:25.756Z,17.50
2018-07-16T01:42:53.705Z,17.50
2018-07-16T01:45:22.704Z,17.60
2018-07-16T01:47:50.640Z,17.60
2018-07-16T01:50:18.502Z,17.60
2018-07-16T01:55:47.263Z,17.50
2018-07-16T01:58:15.185Z,17.50
2018-07-16T02:01:02.229Z,17.40
2018-07-16T02:03:31.363Z,17.40
2018-07-16T02:05:59.241Z,17.40
2018-07-16T02:08:27.635Z,17.30
2018-07-16T02:10:56.703Z,17.40
2018-07-16T02:13:24.645Z,17.30
2018-07-16T02:15:55.963Z,17.30
2018-07-16T02:18:23.819Z,17.40
2018-07-16T02:20:51.750Z,17.30
2018-07-16T02:23:19.600Z,17.30
2018-07-16T02:25:54.771Z,17.30
2018-07-16T02:28:22.700Z,17.30
2018-07-16T02:30:50.661Z,17.30
2018-07-16T02:33:18.568Z,17.20
2018-07-16T02:35:46.435Z,17.20
2018-07-16T02:38:14.328Z,17.20
2018-07-16T02:40:43.166Z,17.10
2018-07-16T02:43:11.108Z,17.10
2018-07-16T02:45:39.883Z,17.10
2018-07-16T02:48:07.917Z,17.10
2018-07-16T02:50:35.845Z,17.20
2018-07-16T02:53:05.495Z,17.20
2018-07-16T02:55:33.474Z,17.30
2018-07-16T02:58:02.014Z,17.30
2018-07-16T03:00:30.973Z,17.20
2018-07-16T03:02:59.028Z,17.20
2018-07-16T03:05:26.844Z,17.20
2018-07-16T03:10:22.457Z,17.20
2018-07-16T03:12:50.434Z,17.10
2018-07-16T03:15:18.339Z,17.10
2018-07-16T03:17:46.195Z,17.00
2018-07-16T03:20:14.095Z,17.00
2018-07-16T03:22:42.056Z,16.90
2018-07-16T03:25:10.198Z,16.90
2018-07-16T03:27:38.176Z,16.80
2018-07-16T03:30:06.241Z,16.80
2018-07-16T03:35:04.077Z,16.90
2018-07-16T03:37:32.094Z,16.90
2018-07-16T03:40:00.151Z,16.90
2018-07-16T03:42:28.183Z,16.90
2018-07-16T03:44:56.118Z,16.80
2018-07-16T03:47:23.924Z,16.80
2018-07-16T03:49:51.817Z,16.80
2018-07-16T03:52:19.775Z,16.80
2018-07-16T03:54:47.769Z,16.90
2018-07-16T03:57:15.758Z,16.80
2018-07-16T03:59:43.629Z,16.90
2018-07-16T04:02:11.899Z,16.90
2018-07-16T04:04:39.914Z,16.90
2018-07-16T04:07:07.768Z,16.90
2018-07-16T04:09:35.779Z,16.90
2018-07-16T04:12:04.217Z,16.90
2018-07-16T04:14:32.226Z,16.90
2018-07-16T04:17:00.266Z,17.00
2018-07-16T04:19:29.168Z,17.00
2018-07-16T04:21:57.164Z,17.00
2018-07-16T04:24:25.302Z,17.10
2018-07-16T04:26:53.107Z,17.10
2018-07-16T04:31:49.053Z,17.20
2018-07-16T04:34:16.846Z,17.30
2018-07-16T04:36:44.731Z,17.40
2018-07-16T04:39:12.602Z,17.50
2018-07-16T04:41:40.479Z,17.50
2018-07-16T04:44:08.427Z,17.60
2018-07-16T04:46:36.465Z,17.60
2018-07-16T04:49:04.478Z,17.60
2018-07-16T04:51:32.231Z,17.60
2018-07-16T04:54:00.116Z,17.70
2018-07-16T04:56:28.021Z,17.70
2018-07-16T04:58:56.095Z,17.70
2018-07-16T05:01:29.553Z,17.70
2018-07-16T05:03:57.427Z,17.70
2018-07-16T05:06:25.355Z,17.80
2018-07-16T05:08:53.186Z,17.80
2018-07-16T05:11:21.188Z,17.90
2018-07-16T05:13:48.971Z,18.00
2018-07-16T05:16:16.946Z,18.00
2018-07-16T05:18:46.753Z,18.10
2018-07-16T05:21:14.677Z,18.10
2018-07-16T05:23:42.563Z,18.20
2018-07-16T05:26:14.906Z,18.30
2018-07-16T05:28:42.877Z,18.40
2018-07-16T05:31:10.628Z,18.40
2018-07-16T05:33:38.613Z,18.30
2018-07-16T05:36:06.823Z,18.30
2018-07-16T05:38:35.015Z,18.30
2018-07-16T05:41:03.305Z,18.40
2018-07-16T05:43:31.084Z,18.40
2018-07-16T05:45:59.148Z,18.40
2018-07-16T05:48:27.125Z,18.40
2018-07-16T05:50:55.999Z,18.60
2018-07-16T05:53:23.853Z,18.80
2018-07-16T05:55:51.941Z,18.80
2018-07-16T05:58:19.913Z,18.90
2018-07-16T06:00:47.764Z,18.90
2018-07-16T06:03:15.542Z,19.00
2018-07-16T06:05:43.444Z,19.00
2018-07-16T06:08:11.328Z,19.10
2018-07-16T06:10:39.186Z,19.20
2018-07-16T06:13:07.221Z,19.40
2018-07-16T06:15:35.549Z,19.60
2018-07-16T06:18:08.279Z,19.80
2018-07-16T06:20:36.269Z,19.90
2018-07-16T06:23:04.242Z,20.00
2018-07-16T06:25:32.211Z,19.90
2018-07-16T06:28:00.172Z,20.00
2018-07-16T06:30:28.014Z,20.10
2018-07-16T06:32:56.175Z,20.10
2018-07-16T06:37:51.681Z,20.10
2018-07-16T06:40:19.758Z,20.00
2018-07-16T06:45:15.429Z,19.80
2018-07-16T06:47:43.331Z,19.80
2018-07-16T06:50:11.325Z,19.80
2018-07-16T06:52:39.596Z,19.70
2018-07-16T06:55:07.723Z,19.60
2018-07-16T06:57:36.041Z,19.50
2018-07-16T07:00:07.606Z,19.40
2018-07-16T07:02:35.848Z,19.30
2018-07-16T07:05:04.041Z,19.30
2018-07-16T07:07:31.992Z,19.20
2018-07-16T07:09:59.967Z,19.20
2018-07-16T07:12:27.852Z,19.10
2018-07-16T07:14:55.821Z,19.10
2018-07-16T07:17:23.777Z,19.10
2018-07-16T07:19:51.754Z,19.10
2018-07-16T07:22:19.698Z,19.10
2018-07-16T07:24:47.606Z,19.00
2018-07-16T07:27:16.617Z,19.00
2018-07-16T07:29:44.516Z,19.00
2018-07-16T07:32:12.356Z,19.00
2018-07-16T07:34:41.263Z,19.00
2018-07-16T07:37:09.447Z,19.00
2018-07-16T07:39:37.416Z,19.00
2018-07-16T07:42:05.467Z,18.90
2018-07-16T07:44:33.894Z,19.00
2018-07-16T07:47:01.748Z,19.00
2018-07-16T07:49:39.766Z,19.00
2018-07-16T07:52:07.717Z,19.00
2018-07-16T07:54:35.977Z,19.10
2018-07-16T07:57:04.178Z,19.20
2018-07-16T07:59:32.219Z,19.30
2018-07-16T08:02:00.661Z,19.30
2018-07-16T08:04:28.591Z,19.40
2018-07-16T08:07:02.029Z,19.50
2018-07-16T08:09:29.980Z,19.60
2018-07-16T08:11:57.827Z,19.70
2018-07-16T08:14:25.809Z,19.80
2018-07-16T08:16:53.840Z,19.80
2018-07-16T08:19:21.825Z,19.80
2018-07-16T08:21:49.964Z,19.70
2018-07-16T08:24:17.831Z,19.70
2018-07-16T08:26:45.681Z,19.70
2018-07-16T08:29:13.702Z,19.70
2018-07-16T08:31:41.698Z,19.70
2018-07-16T08:34:09.903Z,19.70
2018-07-16T08:36:37.948Z,19.70
2018-07-16T08:39:06.419Z,19.70
2018-07-16T08:41:34.593Z,19.90
2018-07-16T08:44:02.775Z,20.00
2018-07-16T08:46:31.043Z,20.20
2018-07-16T08:48:59.332Z,20.30
2018-07-16T08:51:27.075Z,20.30
2018-07-16T08:53:55.024Z,20.30
2018-07-16T08:56:22.961Z,20.20
2018-07-16T08:58:50.898Z,20.20
2018-07-16T09:01:18.791Z,20.20
2018-07-16T09:03:46.662Z,20.10
2018-07-16T09:06:14.626Z,20.00
2018-07-16T09:08:42.449Z,20.00
2018-07-16T09:11:10.617Z,19.80
2018-07-16T09:13:38.691Z,19.80
2018-07-16T09:16:06.594Z,19.90
2018-07-16T09:18:35.743Z,19.90
2018-07-16T09:21:03.784Z,20.00
2018-07-16T09:23:31.808Z,20.10
2018-07-16T09:25:59.754Z,20.10
2018-07-16T09:28:27.783Z,20.20
2018-07-16T09:30:55.710Z,20.20
2018-07-16T09:33:23.682Z,20.20
2018-07-16T09:35:51.585Z,20.20
2018-07-16T09:38:19.458Z,20.30
2018-07-16T09:40:47.463Z,20.30
2018-07-16T09:43:15.664Z,20.40
2018-07-16T09:45:43.586Z,20.50
2018-07-16T09:48:11.516Z,20.60
2018-07-16T09:50:39.610Z,20.60
2018-07-16T09:53:08.088Z,20.60
2018-07-16T09:58:05.205Z,20.70
2018-07-16T10:00:38.584Z,20.70
2018-07-16T10:03:07.458Z,20.70
2018-07-16T10:05:36.389Z,20.90
2018-07-16T10:08:05.414Z,21.10
2018-07-16T10:10:34.318Z,21.40
2018-07-16T10:13:02.751Z,21.80
2018-07-16T10:15:31.187Z,22.20
2018-07-16T10:17:59.557Z,22.40
2018-07-16T10:20:28.159Z,22.50
2018-07-16T10:22:56.177Z,22.50
2018-07-16T10:25:24.385Z,22.90
2018-07-16T10:27:52.471Z,23.20
2018-07-16T10:30:20.499Z,23.60
2018-07-16T10:32:48.445Z,23.80
2018-07-16T10:35:16.778Z,23.90
2018-07-16T10:37:52.393Z,24.00
2018-07-16T10:40:20.612Z,24.30
2018-07-16T10:42:53.165Z,24.50
2018-07-16T10:45:21.186Z,24.70
2018-07-16T10:47:49.300Z,24.70
2018-07-16T10:50:17.486Z,25.00
2018-07-16T10:52:45.606Z,25.40
2018-07-16T10:57:45.191Z,26.00
2018-07-16T11:00:13.226Z,26.10
2018-07-16T11:02:41.976Z,26.30
2018-07-16T11:05:10.456Z,26.30
2018-07-16T11:07:39.831Z,26.40
2018-07-16T11:10:08.884Z,26.60
2018-07-16T11:12:37.675Z,26.80
2018-07-16T11:15:06.381Z,26.80
2018-07-16T11:17:35.464Z,27.10
2018-07-16T11:20:04.328Z,27.20
2018-07-16T11:22:37.182Z,27.10
2018-07-16T11:25:08.173Z,27.20
2018-07-16T11:27:36.641Z,27.10
2018-07-16T11:32:34.765Z,27.30
2018-07-16T11:35:03.830Z,27.20
2018-07-16T11:37:31.901Z,27.30
2018-07-16T11:40:00.022Z,27.30
2018-07-16T11:42:27.965Z,26.90
2018-07-16T11:47:27.990Z,26.60
2018-07-16T11:49:55.863Z,26.60
2018-07-16T11:52:23.894Z,26.70
2018-07-16T11:54:52.927Z,26.80
2018-07-16T11:57:20.848Z,26.90
2018-07-16T11:59:48.845Z,26.80
2018-07-16T12:02:16.833Z,26.70
2018-07-16T12:04:45.108Z,26.50
2018-07-16T12:07:14.151Z,26.60
2018-07-16T12:09:42.386Z,26.60
2018-07-16T12:12:10.475Z,26.70
2018-07-16T12:14:39.301Z,26.70
2018-07-16T12:17:07.396Z,26.60
2018-07-16T12:22:03.836Z,26.40
2018-07-16T12:24:31.880Z,26.40
2018-07-16T12:27:04.474Z,26.40
2018-07-16T12:29:32.463Z,26.40
2018-07-16T12:32:00.344Z,26.40
2018-07-16T12:34:28.326Z,26.40
2018-07-16T12:36:56.332Z,26.40
2018-07-16T12:39:24.301Z,26.30
2018-07-16T12:41:52.463Z,26.30
2018-07-16T12:44:20.454Z,26.30
2018-07-16T12:46:48.637Z,26.30
2018-07-16T12:49:16.530Z,26.30
2018-07-16T12:51:44.477Z,26.20
2018-07-16T12:54:12.360Z,26.30
2018-07-16T12:56:40.208Z,26.30
2018-07-16T12:59:08.270Z,26.30
2018-07-16T13:01:36.678Z,26.10
2018-07-16T13:04:05.413Z,26.00
2018-07-16T13:06:35.212Z,25.90
2018-07-16T13:09:04.697Z,25.80
2018-07-16T13:11:33.279Z,25.70
2018-07-16T13:14:01.411Z,25.70
2018-07-16T13:16:29.311Z,25.70
2018-07-16T13:18:57.216Z,25.80
2018-07-16T13:21:25.119Z,25.90
2018-07-16T13:23:53.082Z,26.10
2018-07-16T13:26:20.979Z,26.40
2018-07-16T13:28:49.029Z,26.80
2018-07-16T13:31:17.003Z,27.00
2018-07-16T13:33:44.999Z,27.20
2018-07-16T13:36:13.104Z,27.20
2018-07-16T13:38:41.010Z,27.40
2018-07-16T13:41:09.012Z,27.70
2018-07-16T13:43:36.997Z,27.70
2018-07-16T13:48:32.841Z,27.90
2018-07-16T13:51:00.861Z,27.90
2018-07-16T13:53:28.744Z,27.90
2018-07-16T13:55:56.634Z,28.00
2018-07-16T13:58:24.569Z,28.10
2018-07-16T14:00:52.408Z,27.80
2018-07-16T14:03:20.401Z,27.70
2018-07-16T14:05:48.470Z,27.70
2018-07-16T14:08:16.397Z,27.90
2018-07-16T14:10:44.325Z,27.90
2018-07-16T14:13:12.140Z,27.60
2018-07-16T14:15:40.059Z,27.50
2018-07-16T14:18:08.087Z,27.40
2018-07-16T14:20:36.335Z,27.50
2018-07-16T14:23:04.402Z,27.70
2018-07-16T14:25:33.463Z,27.90
2018-07-16T14:28:01.540Z,27.80
2018-07-16T14:30:29.498Z,27.80
2018-07-16T14:32:57.307Z,27.50
2018-07-16T14:35:25.317Z,27.10
2018-07-16T14:37:53.380Z,27.00
2018-07-16T14:40:22.771Z,27.00
2018-07-16T14:42:51.952Z,27.10
2018-07-16T14:45:19.836Z,27.10
2018-07-16T14:47:59.148Z,27.10
2018-07-16T14:50:27.068Z,27.00
2018-07-16T14:52:54.930Z,26.80
2018-07-16T14:55:22.918Z,26.60
2018-07-16T14:57:50.826Z,26.60
2018-07-16T15:00:19.122Z,26.70
2018-07-16T15:02:47.114Z,26.70
2018-07-16T15:05:15.275Z,26.60
2018-07-16T15:07:43.368Z,26.80
2018-07-16T15:10:11.564Z,26.80
2018-07-16T15:12:39.610Z,26.70
2018-07-16T15:15:07.914Z,26.50
2018-07-16T15:17:37.502Z,26.40
2018-07-16T15:20:06.680Z,26.50
2018-07-16T15:22:36.289Z,26.50
2018-07-16T15:25:04.734Z,26.70
2018-07-16T15:27:32.771Z,26.70
2018-07-16T15:32:28.431Z,26.80
2018-07-16T15:34:56.448Z,26.90
2018-07-16T15:37:34.238Z,26.90
2018-07-16T15:40:02.200Z,27.00
2018-07-16T15:42:30.044Z,26.90
2018-07-16T15:44:57.921Z,26.80
2018-07-16T15:47:25.867Z,26.70
2018-07-16T15:49:53.796Z,26.70
2018-07-16T15:52:21.729Z,26.70
2018-07-16T15:54:49.604Z,26.70
2018-07-16T15:57:17.433Z,26.80
2018-07-16T15:59:45.295Z,26.80
2018-07-16T16:02:13.219Z,26.80
2018-07-16T16:04:41.208Z,26.80
2018-07-16T16:07:09.171Z,26.80
2018-07-16T16:09:39.305Z,26.70
2018-07-16T16:12:07.704Z,26.70
2018-07-16T16:14:36.011Z,26.70
2018-07-16T16:17:04.681Z,26.60
2018-07-16T16:22:00.474Z,26.60
2018-07-16T16:24:28.727Z,26.40
2018-07-16T16:26:56.729Z,26.20
2018-07-16T16:29:24.578Z,26.10
2018-07-16T16:31:53.132Z,25.80
2018-07-16T16:34:21.043Z,25.60
2018-07-16T16:36:49.098Z,25.50
2018-07-16T16:39:17.044Z,25.40
2018-07-16T16:41:44.987Z,25.20
2018-07-16T16:44:13.103Z,25.10
2018-07-16T16:46:41.130Z,25.10
2018-07-16T16:49:12.029Z,25.00
2018-07-16T16:51:39.867Z,25.00
2018-07-16T16:54:07.932Z,24.90
2018-07-16T16:56:36.172Z,24.60
2018-07-16T16:59:04.248Z,24.50
2018-07-16T17:01:48.764Z,24.50
2018-07-16T17:04:16.700Z,24.50
2018-07-16T17:06:44.602Z,24.40
2018-07-16T17:11:43.939Z,24.30
2018-07-16T17:14:15.122Z,24.20
2018-07-16T17:16:45.232Z,24.20
2018-07-16T17:19:13.258Z,24.20
2018-07-16T17:21:41.326Z,24.20
2018-07-16T17:24:09.329Z,24.20
2018-07-16T17:26:37.429Z,24.20
2018-07-16T17:29:07.746Z,24.30
2018-07-16T17:31:35.912Z,24.20
2018-07-16T17:34:03.872Z,24.20
2018-07-16T17:36:32.562Z,24.10
2018-07-16T17:39:00.505Z,24.10
2018-07-16T17:41:28.440Z,24.00
2018-07-16T17:43:56.308Z,24.00
2018-07-16T17:46:24.168Z,24.00
2018-07-16T17:48:52.137Z,23.90
2018-07-16T17:51:20.116Z,24.00
2018-07-16T17:53:48.072Z,24.10
2018-07-16T17:56:15.930Z,24.00
2018-07-16T18:01:11.547Z,23.70
2018-07-16T18:03:41.518Z,23.60
2018-07-16T18:06:09.569Z,23.50
2018-07-16T18:08:38.018Z,23.30
2018-07-16T18:11:06.347Z,23.20
2018-07-16T18:13:34.241Z,23.10
2018-07-16T18:16:02.147Z,22.90
2018-07-16T18:18:30.132Z,22.80
2018-07-16T18:21:00.309Z,22.70
2018-07-16T18:23:34.035Z,22.60
2018-07-16T18:26:02.016Z,22.50
2018-07-16T18:28:30.040Z,22.40
2018-07-16T18:30:57.949Z,22.30
2018-07-16T18:33:26.371Z,22.20
2018-07-16T18:35:54.725Z,22.00
2018-07-16T18:38:22.667Z,21.90
2018-07-16T18:40:50.641Z,21.80
2018-07-16T18:43:18.571Z,21.70
2018-07-16T18:45:46.502Z,21.70
2018-07-16T18:48:14.443Z,21.50
2018-07-16T18:50:42.377Z,21.40
2018-07-16T18:53:10.567Z,21.30
2018-07-16T18:55:38.805Z,21.20
2018-07-16T18:58:06.847Z,21.20
2018-07-16T19:00:35.014Z,21.10
2018-07-16T19:03:03.112Z,21.10
2018-07-16T19:05:31.099Z,21.00
2018-07-16T19:07:59.192Z,21.00
2018-07-16T19:10:27.118Z,20.90
2018-07-16T19:12:55.143Z,20.80
2018-07-16T19:15:25.114Z,20.70
2018-07-16T19:17:57.697Z,20.60
2018-07-16T19:20:26.321Z,20.60
2018-07-16T19:22:55.325Z,20.50
2018-07-16T19:25:23.935Z,20.40
2018-07-16T19:27:53.075Z,20.30
2018-07-16T19:30:21.112Z,20.30
2018-07-16T19:32:49.076Z,20.20
2018-07-16T19:35:17.197Z,20.20
2018-07-16T19:37:45.431Z,20.20
2018-07-16T19:40:13.393Z,20.10
2018-07-16T19:42:41.706Z,20.10
2018-07-16T19:45:09.877Z,20.00
2018-07-16T19:47:37.898Z,20.00
2018-07-16T19:50:06.789Z,19.90
2018-07-16T19:52:35.610Z,19.90
2018-07-16T19:55:03.664Z,19.80
2018-07-16T19:57:31.640Z,19.80
2018-07-16T19:59:59.635Z,19.70
2018-07-16T20:02:27.621Z,19.60
2018-07-16T20:04:55.400Z,19.60
2018-07-16T20:07:23.217Z,19.50
2018-07-16T20:09:51.157Z,19.50
2018-07-16T20:12:30.734Z,19.40
2018-07-16T20:14:59.339Z,19.30
2018-07-16T20:17:27.359Z,19.30
2018-07-16T20:19:55.615Z,19.30
2018-07-16T20:22:23.626Z,19.20
2018-07-16T20:24:51.648Z,19.20
2018-07-16T20:27:19.868Z,19.10
2018-07-16T20:29:47.777Z,19.10
2018-07-16T20:32:16.154Z,19.00
2018-07-16T20:34:44.148Z,19.00
2018-07-16T20:37:12.138Z,18.90
2018-07-16T20:39:40.329Z,18.90
2018-07-16T20:44:37.696Z,18.90
2018-07-16T20:47:06.161Z,18.80
2018-07-16T20:49:35.474Z,18.70
2018-07-16T20:52:06.425Z,18.50
2018-07-16T20:54:35.601Z,18.50
2018-07-16T20:57:04.925Z,18.40
2018-07-16T20:59:33.149Z,18.30
2018-07-16T21:02:01.172Z,18.30
2018-07-16T21:04:29.298Z,18.20
2018-07-16T21:06:57.158Z,18.20
2018-07-16T21:09:26.148Z,18.10
2018-07-16T21:11:54.166Z,18.00
2018-07-16T21:14:22.541Z,17.90
2018-07-16T21:17:03.279Z,17.80
2018-07-16T21:19:31.429Z,17.70
2018-07-16T21:21:59.543Z,17.70
2018-07-16T21:24:27.544Z,17.60
2018-07-16T21:26:55.457Z,17.60
2018-07-16T21:29:23.409Z,17.60
2018-07-16T21:31:51.405Z,17.60
2018-07-16T21:34:19.457Z,17.70
2018-07-16T21:36:47.338Z,17.60
2018-07-16T21:39:15.298Z,17.60
2018-07-16T21:41:43.537Z,17.60
2018-07-16T21:44:11.693Z,17.60
2018-07-16T21:46:40.080Z,17.60
2018-07-16T21:49:09.406Z,17.40
2018-07-16T21:51:37.549Z,17.30
2018-07-16T21:54:06.569Z,17.30
2018-07-16T21:56:36.645Z,17.30
2018-07-16T21:59:06.638Z,17.20
2018-07-16T22:01:36.408Z,17.20
2018-07-16T22:04:06.656Z,17.20
2018-07-16T22:06:36.748Z,17.20
2018-07-16T22:09:06.321Z,17.20
2018-07-16T22:11:34.328Z,17.10
2018-07-16T22:14:02.404Z,17.00
2018-07-16T22:16:30.262Z,17.00
2018-07-16T22:18:58.152Z,16.90
2018-07-16T22:21:26.409Z,17.00
2018-07-16T22:23:54.331Z,16.90
2018-07-16T22:26:22.265Z,16.80
2018-07-16T22:28:50.176Z,16.80
2018-07-16T22:31:17.994Z,16.70
2018-07-16T22:33:45.837Z,16.60
2018-07-16T22:36:13.835Z,16.60
2018-07-16T22:38:41.773Z,16.60
2018-07-16T22:41:09.719Z,16.60
2018-07-16T22:43:37.837Z,16.60
2018-07-16T22:46:05.731Z,16.60
2018-07-16T22:48:33.518Z,16.60
2018-07-16T22:51:01.458Z,16.50
2018-07-16T22:53:29.440Z,16.60
2018-07-16T22:55:57.485Z,16.50
2018-07-16T22:58:30.316Z,16.50
2018-07-16T23:00:58.208Z,16.60
2018-07-16T23:03:26.094Z,16.40
2018-07-16T23:08:21.674Z,16.30
2018-07-16T23:10:49.677Z,16.30
2018-07-16T23:13:17.618Z,16.20
2018-07-16T23:15:45.606Z,16.30
2018-07-16T23:18:13.611Z,16.30
2018-07-16T23:20:41.605Z,16.30
2018-07-16T23:23:09.611Z,16.30
2018-07-16T23:25:37.664Z,16.30
2018-07-16T23:28:05.761Z,16.20
2018-07-16T23:30:33.738Z,16.10
2018-07-16T23:33:01.577Z,16.20
2018-07-16T23:35:29.415Z,16.10
2018-07-16T23:37:57.302Z,16.10
2018-07-16T23:40:25.153Z,16.00
2018-07-16T23:42:53.164Z,16.00
2018-07-16T23:45:21.045Z,16.00
2018-07-16T23:47:48.910Z,15.90
2018-07-16T23:50:16.924Z,16.00
2018-07-16T23:52:44.928Z,15.90
2018-07-16T23:55:12.846Z,16.00
2018-07-16T23:57:40.826Z,15.90
